Météo Nord-Pas-de-Calais   La météo au plus près de chez vous

Station météorologique

Observations météo à Dunkerque (59183)

59183001 11 m Dernier relevé à 12:00
19.4°C
Humidité 71 % Vent 29.5 km/h 1009.6 hPa

Journée consultée

Lundi 31 Août 2026

Synthèse de la journée

Périodes de référence en UTC

Température maximale

19.6°C

à 11:54

06h 06h

Température minimale

15.8°C

à 09:00

18h 18h

Rafale maximale

49 km/h

à 11:12

00h 00h

Précipitations

0 mm

Cumul quotidien

06h 06h

Graphiques de la journée

Heure locale Réduire

Données détaillées

Relevés météo

Pas de 6 minutes Afficher les relevés infra-horaires
Relevés météo détaillés à Dunkerque pour le Lundi 31 Août 2026
Heure Température °C Point de rosée °C Humidité % Vent moyen (raf.), km/h Précipitations mm Pression hPa Nébulosité Octas
12:00 19.4 °C 13.6 °C 69 % 28 km/h (45 km/h) 0 mm0 mm 1010.5 hPa
11:54 19.6 °C 14.4 °C 72 % 27 km/h (40 km/h) 0 mm0 mm 1010.4 hPa
11:48 19.3 °C 14.3 °C 73 % 28 km/h (42 km/h) 0 mm0 mm 1010.4 hPa
11:42 19.3 °C 13.7 °C 70 % 30 km/h (47 km/h) 0 mm0 mm 1010.3 hPa
11:36 19.2 °C 13.6 °C 70 % 31 km/h (46 km/h) 0 mm0 mm 1010.2 hPa
11:30 19.2 °C 14 °C 72 % 33 km/h (48 km/h) 0 mm0 mm 1010.2 hPa
11:24 19.1 °C 13.9 °C 72 % 32 km/h (48 km/h) 0 mm0 mm 1010 hPa
11:18 19 °C 13.8 °C 72 % 33 km/h (46 km/h) 0 mm0 mm 1009.9 hPa
11:12 18.9 °C 13.7 °C 72 % 33 km/h (49 km/h) 0 mm0 mm 1009.7 hPa
11:06 19 °C 13.6 °C 71 % 31 km/h (47 km/h) 0 mm0 mm 1009.6 hPa
11:00 19 °C 13.6 °C 71 % 30 km/h (46 km/h) 0 mm0 mm 1009.6 hPa
10:54 18.8 °C 13.2 °C 70 % 27 km/h (44 km/h) 0 mm0 mm 1009.4 hPa
10:48 18.5 °C 13.6 °C 73 % 24 km/h (44 km/h) 0 mm0 mm 1009.4 hPa
10:42 18.6 °C 14.3 °C 76 % 16 km/h (35 km/h) 0 mm0 mm 1009.4 hPa
10:36 18.8 °C 15.3 °C 80 % 19 km/h (32 km/h) 0 mm0 mm 1009.5 hPa
10:30 18.4 °C 14.5 °C 78 % 22 km/h (33 km/h) 0 mm0 mm 1009.3 hPa
10:24 18.6 °C 15.5 °C 82 % 21 km/h (33 km/h) 0 mm0 mm 1009.3 hPa
10:18 18.3 °C 15 °C 81 % 21 km/h (33 km/h) 0 mm0 mm 1009.1 hPa
10:12 18 °C 15.4 °C 85 % 23 km/h (32 km/h) 0 mm0 mm 1009 hPa
10:06 17.7 °C 15 °C 84 % 23 km/h (33 km/h) 0 mm0 mm 1009.1 hPa
10:00 17.8 °C 15.1 °C 84 % 22 km/h (29 km/h) 0 mm0 mm 1009.2 hPa
09:54 17.6 °C 14.9 °C 84 % 21 km/h (30 km/h) 0 mm0 mm 1009 hPa
09:48 17.6 °C 15 °C 85 % 19 km/h (29 km/h) 0 mm0 mm 1008.9 hPa
09:42 17.7 °C 15 °C 84 % 19 km/h (27 km/h) 0 mm0 mm 1008.9 hPa
09:36 17.5 °C 14.6 °C 83 % 19 km/h (27 km/h) 0 mm0 mm 1008.8 hPa
09:30 17.1 °C 15.1 °C 88 % 19 km/h (26 km/h) 0 mm0 mm 1008.8 hPa
09:24 16.9 °C 15.1 °C 89 % 18 km/h (26 km/h) 0 mm0 mm 1008.8 hPa
09:18 16.6 °C 14.8 °C 89 % 19 km/h (26 km/h) 0 mm0 mm 1008.8 hPa
09:12 16.6 °C 15 °C 90 % 19 km/h (26 km/h) 0 mm0 mm 1008.9 hPa
09:06 16.2 °C 14.4 °C 89 % 19 km/h (30 km/h) 0 mm0 mm 1008.7 hPa
09:00 16 °C 13.8 °C 87 % 18 km/h (26 km/h) 0 mm0 mm 1008.7 hPa
08:54 16.2 °C 14.2 °C 88 % 17 km/h (24 km/h) 0 mm0 mm 1008.7 hPa
08:48 16 °C 14 °C 88 % 17 km/h (24 km/h) 0 mm0 mm 1008.8 hPa
08:42 15.9 °C 13.7 °C 87 % 18 km/h (25 km/h) 0 mm0 mm 1008.7 hPa
08:36 16 °C 13.8 °C 87 % 20 km/h (26 km/h) 0 mm0 mm 1008.7 hPa
08:30 16.1 °C 13.9 °C 87 % 20 km/h (27 km/h) 0 mm0 mm 1008.7 hPa
08:24 16.2 °C 13.9 °C 86 % 20 km/h (27 km/h) 0 mm0 mm 1008.7 hPa
08:18 16.2 °C 13.7 °C 85 % 20 km/h (30 km/h) 0 mm0 mm 1008.6 hPa
08:12 16.3 °C 13.6 °C 84 % 21 km/h (30 km/h) 0 mm0 mm 1008.5 hPa
08:06 16.4 °C 13.9 °C 85 % 22 km/h (33 km/h) 0 mm0 mm 1008.3 hPa
08:00 16.4 °C 14.1 °C 86 % 22 km/h (32 km/h) 0 mm0 mm 1008.2 hPa
07:54 16.5 °C 14.3 °C 87 % 23 km/h (33 km/h) 0 mm0 mm 1008.1 hPa
07:48 16.6 °C 14.4 °C 87 % 23 km/h (33 km/h) 0 mm0 mm 1008 hPa
07:42 16.5 °C 14.3 °C 87 % 22 km/h (31 km/h) 0 mm0 mm 1008 hPa
07:36 16.5 °C 14.5 °C 88 % 20 km/h (31 km/h) 0 mm0 mm 1008 hPa
07:30 16.5 °C 14.3 °C 87 % 18 km/h (29 km/h) 0 mm0 mm 1008 hPa
07:24 16.7 °C 14.7 °C 88 % 19 km/h (33 km/h) 0 mm0 mm 1008.1 hPa
07:18 16.5 °C 15 °C 91 % 20 km/h (33 km/h) 0 mm0 mm 1007.8 hPa
07:12 16.5 °C 15.4 °C 93 % 19 km/h (31 km/h) 0 mm0 mm 1007.7 hPa
07:06 16.4 °C 15.3 °C 93 % 17 km/h (24 km/h) 0 mm0 mm 1007.8 hPa
07:00 16.4 °C 15.1 °C 92 % 17 km/h (24 km/h) 0.2 mm1.6 mm 1007.8 hPa
06:54 16.4 °C 15.1 °C 92 % 18 km/h (27 km/h) 0.6 mm0 mm 1007.7 hPa
06:48 16.4 °C 15.1 °C 92 % 18 km/h (27 km/h) 0 mm0 mm 1007.7 hPa
06:42 16.5 °C 15 °C 91 % 20 km/h (37 km/h) 0 mm0 mm 1007.6 hPa
06:36 16.6 °C 15.1 °C 91 % 21 km/h (37 km/h) 0 mm0 mm 1007.2 hPa
06:30 16.4 °C 15.3 °C 93 % 18 km/h (30 km/h) 0 mm0 mm 1007.3 hPa
06:24 16.4 °C 15.1 °C 92 % 19 km/h (31 km/h) 0.2 mm0 mm 1007.6 hPa
06:18 16.4 °C 15.1 °C 92 % 26 km/h (42 km/h) 0.2 mm0 mm 1007.5 hPa
06:12 16.5 °C 15.2 °C 92 % 26 km/h (42 km/h) 0.2 mm0 mm 1007.3 hPa
06:06 16.5 °C 15.4 °C 93 % 22 km/h (35 km/h) 0.2 mm0 mm 1007.4 hPa
06:00 16.3 °C 14.8 °C 91 % 21 km/h (36 km/h) 0.6 mm12.6 mm 1007.4 hPa
05:54 16.4 °C 14.9 °C 91 % 18 km/h (36 km/h) 1.1 mm0 mm 1007.6 hPa
05:48 16.5 °C 15 °C 91 % 16 km/h (39 km/h) 2.6 mm0 mm 1007.6 hPa
05:42 16.5 °C 15 °C 91 % 15 km/h (30 km/h) 0.8 mm0 mm 1008 hPa
05:36 16.6 °C 15.1 °C 91 % 17 km/h (30 km/h) 0.6 mm0 mm 1008 hPa
05:30 16.5 °C 15.4 °C 93 % 11 km/h (25 km/h) 5.2 mm0 mm 1008.2 hPa
05:24 16.4 °C 15.1 °C 92 % 11 km/h (21 km/h) 1.1 mm0 mm 1008.1 hPa
05:18 16.5 °C 15.2 °C 92 % 17 km/h (26 km/h) 0.4 mm0 mm 1008.3 hPa
05:12 16.5 °C 15.2 °C 92 % 19 km/h (27 km/h) 0.2 mm0 mm 1007.8 hPa
05:06 16.6 °C 15.3 °C 92 % 17 km/h (27 km/h) 0 mm0 mm 1007.9 hPa
05:00 16.7 °C 15.4 °C 92 % 18 km/h (25 km/h) 0 mm2.2 mm 1007.7 hPa 5 Octas
04:54 16.7 °C 15.2 °C 91 % 21 km/h (35 km/h) 0 mm0 mm 1008 hPa
04:48 16.8 °C 15.3 °C 91 % 21 km/h (33 km/h) 0.2 mm0 mm 1008.1 hPa
04:42 16.7 °C 15.2 °C 91 % 18 km/h (33 km/h) 1.8 mm0 mm 1008.1 hPa
04:36 16.8 °C 15.1 °C 90 % 18 km/h (26 km/h) 0.2 mm0 mm 1008.3 hPa
04:30 16.8 °C 15.1 °C 90 % 16 km/h (23 km/h) 0 mm0 mm 1008 hPa
04:24 16.7 °C 15.1 °C 90 % 12 km/h (19 km/h) 0 mm0 mm 1008.1 hPa
04:18 16.6 °C 14.8 °C 89 % 14 km/h (26 km/h) 0 mm0 mm 1008.1 hPa
04:12 16.6 °C 14.8 °C 89 % 17 km/h (26 km/h) 0 mm0 mm 1008.3 hPa
04:06 16.5 °C 14.7 °C 89 % 18 km/h (23 km/h) 0 mm0 mm 1008.2 hPa
04:00 16.4 °C 14.4 °C 88 % 18 km/h (25 km/h) 0 mm0 mm 1008 hPa
03:54 16.4 °C 14.4 °C 88 % 17 km/h (25 km/h) 0 mm0 mm 1008.1 hPa
03:48 16.4 °C 14.2 °C 87 % 18 km/h (26 km/h) 0 mm0 mm 1008.2 hPa
03:42 16.5 °C 14.5 °C 88 % 19 km/h (28 km/h) 0 mm0 mm 1008.3 hPa
03:36 16.5 °C 14.5 °C 88 % 19 km/h (28 km/h) 0 mm0 mm 1008.4 hPa
03:30 16.6 °C 14.8 °C 89 % 19 km/h (28 km/h) 0 mm0 mm 1008.4 hPa
03:24 16.7 °C 14.9 °C 89 % 20 km/h (28 km/h) 0 mm0 mm 1008.5 hPa
03:18 16.8 °C 15 °C 89 % 19 km/h (27 km/h) 0 mm0 mm 1008.5 hPa
03:12 16.8 °C 15 °C 89 % 18 km/h (27 km/h) 0 mm0 mm 1008.6 hPa
03:06 16.9 °C 14.9 °C 88 % 18 km/h (27 km/h) 0 mm0 mm 1008.6 hPa
03:00 16.8 °C 15 °C 89 % 19 km/h (28 km/h) 0 mm0.8 mm 1008.6 hPa
02:54 16.7 °C 15.1 °C 90 % 18 km/h (25 km/h) 0 mm0 mm 1008.7 hPa
02:48 16.8 °C 15.3 °C 91 % 18 km/h (26 km/h) 0 mm0 mm 1008.7 hPa
02:42 16.9 °C 15.4 °C 91 % 19 km/h (27 km/h) 0 mm0 mm 1008.6 hPa
02:36 17.1 °C 15.8 °C 92 % 19 km/h (27 km/h) 0 mm0 mm 1008.6 hPa
02:30 17.1 °C 15.6 °C 91 % 19 km/h (32 km/h) 0.2 mm0 mm 1008.7 hPa
02:24 17.2 °C 15.9 °C 92 % 19 km/h (32 km/h) 0 mm0 mm 1008.8 hPa
02:18 17.2 °C 15.7 °C 91 % 16 km/h (24 km/h) 0.4 mm0 mm 1008.9 hPa
02:12 17.3 °C 15.6 °C 90 % 15 km/h (19 km/h) 0 mm0 mm 1008.9 hPa
02:06 17.5 °C 15.8 °C 90 % 16 km/h (25 km/h) 0.2 mm0 mm 1008.9 hPa
02:00 17.4 °C 15.6 °C 89 % 17 km/h (25 km/h) 0 mm0 mm 1009 hPa
01:54 17.4 °C 15.6 °C 89 % 16 km/h (23 km/h) 0 mm0 mm 1009 hPa
01:48 17.4 °C 15.4 °C 88 % 17 km/h (24 km/h) 0 mm0 mm 1008.9 hPa
01:42 17.4 °C 15.4 °C 88 % 18 km/h (24 km/h) 0 mm0 mm 1008.9 hPa
01:36 17.4 °C 15.2 °C 87 % 19 km/h (23 km/h) 0 mm0 mm 1008.8 hPa
01:30 17.4 °C 15.2 °C 87 % 19 km/h (25 km/h) 0 mm0 mm 1008.9 hPa
01:24 17.4 °C 15.2 °C 87 % 20 km/h (28 km/h) 0 mm0 mm 1008.7 hPa
01:18 17.5 °C 15.1 °C 86 % 19 km/h (27 km/h) 0 mm0 mm 1008.7 hPa
01:12 17.5 °C 15.1 °C 86 % 17 km/h (25 km/h) 0 mm0 mm 1008.9 hPa
01:06 17.5 °C 14.9 °C 85 % 16 km/h (23 km/h) 0 mm0 mm 1009 hPa
01:00 17.6 °C 15.2 °C 86 % 16 km/h (24 km/h) 0 mm0 mm 1008.9 hPa
00:54 17.6 °C 15.2 °C 86 % 15 km/h (21 km/h) 0 mm0 mm 1009 hPa
00:48 17.7 °C 15.3 °C 86 % 14 km/h (21 km/h) 0 mm0 mm 1009 hPa
00:42 17.7 °C 15.3 °C 86 % 14 km/h (22 km/h) 0 mm0 mm 1009 hPa
00:36 17.8 °C 15.4 °C 86 % 15 km/h (23 km/h) 0 mm0 mm 1009.1 hPa
00:30 17.8 °C 15.4 °C 86 % 14 km/h (23 km/h) 0 mm0 mm 1009.1 hPa
00:24 17.8 °C 15.4 °C 86 % 13 km/h (18 km/h) 0 mm0 mm 1009.2 hPa
00:18 17.9 °C 15.5 °C 86 % 12 km/h (19 km/h) 0 mm0 mm 1009.2 hPa
00:12 17.9 °C 15.3 °C 85 % 13 km/h (19 km/h) 0 mm0 mm 1009.2 hPa
00:06 17.9 °C 15.5 °C 86 % 14 km/h (21 km/h) 0 mm0 mm 1009.2 hPa
00:00 17.8 °C 15.4 °C 86 % 14 km/h (21 km/h) 0 mm0 mm 1009.3 hPa

Données via Météo-France

Relevés météo à Dunkerque

Cette page rassemble les observations de la station de Dunkerque : température, humidité, vent, précipitations et pression atmosphérique. Les graphiques facilitent le suivi de la journée, tandis que le tableau donne accès aux mesures horaires et infra-horaires disponibles.

Pour replacer ces mesures dans leur contexte, consultez la climatologie de Dunkerque ainsi que ses normales et records. Retrouvez aussi la carte des observations météo en temps réel.